sensor_id;sensor_type;location;lat;lon;timestamp;pressure;altitude;pressure_sealevel;temperature;humidity
5814;BME280;2933;52.302;8.134;2022-12-18T00:04:16;101861.94;;;-11.77;100.00
5814;BME280;2933;52.302;8.134;2022-12-18T00:09:20;101858.44;;;-11.95;100.00
5814;BME280;2933;52.302;8.134;2022-12-18T00:14:21;101867.50;;;-11.82;100.00
5814;BME280;2933;52.302;8.134;2022-12-18T00:19:24;101865.16;;;-11.63;100.00
5814;BME280;2933;52.302;8.134;2022-12-18T00:24:26;101847.03;;;-11.89;100.00
5814;BME280;2933;52.302;8.134;2022-12-18T00:29:27;101863.63;;;-11.92;100.00
5814;BME280;2933;52.302;8.134;2022-12-18T00:34:30;101853.03;;;-12.03;100.00
5814;BME280;2933;52.302;8.134;2022-12-18T00:39:32;101842.53;;;-12.11;100.00
5814;BME280;2933;52.302;8.134;2022-12-18T00:44:34;101860.59;;;-12.03;100.00
5814;BME280;2933;52.302;8.134;2022-12-18T00:49:37;101854.41;;;-12.08;100.00
5814;BME280;2933;52.302;8.134;2022-12-18T00:54:38;101842.78;;;-12.06;100.00
5814;BME280;2933;52.302;8.134;2022-12-18T00:59:40;101848.13;;;-11.83;100.00
5814;BME280;2933;52.302;8.134;2022-12-18T01:04:43;101856.44;;;-11.70;100.00
5814;BME280;2933;52.302;8.134;2022-12-18T01:09:44;101860.34;;;-11.75;100.00
5814;BME280;2933;52.302;8.134;2022-12-18T01:14:46;101845.03;;;-12.11;100.00
5814;BME280;2933;52.302;8.134;2022-12-18T01:19:49;101845.16;;;-12.09;100.00
5814;BME280;2933;52.302;8.134;2022-12-18T01:24:50;101855.88;;;-11.97;100.00
5814;BME280;2933;52.302;8.134;2022-12-18T01:29:52;101851.56;;;-11.99;100.00
5814;BME280;2933;52.302;8.134;2022-12-18T01:34:55;101851.63;;;-11.98;100.00
5814;BME280;2933;52.302;8.134;2022-12-18T01:39:56;101846.81;;;-11.93;100.00
5814;BME280;2933;52.302;8.134;2022-12-18T01:45:01;101826.34;;;-11.99;100.00
5814;BME280;2933;52.302;8.134;2022-12-18T01:50:08;101868.16;;;-12.03;100.00
5814;BME280;2933;52.302;8.134;2022-12-18T01:55:11;101859.97;;;-11.99;100.00
5814;BME280;2933;52.302;8.134;2022-12-18T02:00:16;101868.38;;;-11.98;100.00
5814;BME280;2933;52.302;8.134;2022-12-18T02:05:29;101839.22;;;-12.10;100.00
5814;BME280;2933;52.302;8.134;2022-12-18T02:10:39;101872.88;;;-12.09;100.00
5814;BME280;2933;52.302;8.134;2022-12-18T02:15:49;101872.78;;;-12.26;100.00
5814;BME280;2933;52.302;8.134;2022-12-18T02:20:55;101869.69;;;-12.22;100.00
5814;BME280;2933;52.302;8.134;2022-12-18T02:26:06;101811.78;;;-12.37;100.00
5814;BME280;2933;52.302;8.134;2022-12-18T02:31:11;101861.25;;;-12.22;100.00
5814;BME280;2933;52.302;8.134;2022-12-18T02:36:16;101843.09;;;-12.16;100.00
5814;BME280;2933;52.302;8.134;2022-12-18T02:41:23;101844.38;;;-12.23;100.00
5814;BME280;2933;52.302;8.134;2022-12-18T02:46:30;101857.31;;;-12.17;100.00
5814;BME280;2933;52.302;8.134;2022-12-18T02:51:40;101870.13;;;-12.29;100.00
5814;BME280;2933;52.302;8.134;2022-12-18T02:56:49;101856.56;;;-12.31;100.00
5814;BME280;2933;52.302;8.134;2022-12-18T03:01:57;101857.91;;;-12.06;100.00
5814;BME280;2933;52.302;8.134;2022-12-18T03:07:06;101848.50;;;-12.25;100.00
5814;BME280;2933;52.302;8.134;2022-12-18T03:12:15;101838.25;;;-12.28;100.00
5814;BME280;2933;52.302;8.134;2022-12-18T03:17:26;101837.38;;;-12.29;100.00
5814;BME280;2933;52.302;8.134;2022-12-18T03:22:30;101827.13;;;-12.32;100.00
5814;BME280;2933;52.302;8.134;2022-12-18T03:27:37;101842.78;;;-12.38;100.00
5814;BME280;2933;52.302;8.134;2022-12-18T03:32:43;101852.56;;;-12.27;100.00
5814;BME280;2933;52.302;8.134;2022-12-18T03:37:47;101860.22;;;-12.41;100.00
5814;BME280;2933;52.302;8.134;2022-12-18T03:42:55;101810.53;;;-12.60;100.00
5814;BME280;2933;52.302;8.134;2022-12-18T03:48:01;101849.47;;;-12.38;100.00
5814;BME280;2933;52.302;8.134;2022-12-18T03:53:12;101804.09;;;-12.55;100.00
5814;BME280;2933;52.302;8.134;2022-12-18T03:58:20;101831.06;;;-12.37;100.00
5814;BME280;2933;52.302;8.134;2022-12-18T04:03:25;101838.25;;;-12.28;100.00
5814;BME280;2933;52.302;8.134;2022-12-18T04:08:28;101844.53;;;-12.37;100.00
5814;BME280;2933;52.302;8.134;2022-12-18T04:13:33;101833.91;;;-12.31;100.00
5814;BME280;2933;52.302;8.134;2022-12-18T04:18:35;101813.56;;;-12.65;100.00
5814;BME280;2933;52.302;8.134;2022-12-18T04:23:37;101859.38;;;-12.41;100.00
5814;BME280;2933;52.302;8.134;2022-12-18T04:28:40;101856.16;;;-12.39;100.00
5814;BME280;2933;52.302;8.134;2022-12-18T04:33:41;101848.69;;;-12.37;100.00
5814;BME280;2933;52.302;8.134;2022-12-18T04:38:43;101848.28;;;-12.45;100.00
5814;BME280;2933;52.302;8.134;2022-12-18T04:43:46;101858.06;;;-12.49;100.00
5814;BME280;2933;52.302;8.134;2022-12-18T04:48:47;101863.44;;;-12.43;100.00
5814;BME280;2933;52.302;8.134;2022-12-18T04:53:49;101857.78;;;-12.24;100.00
5814;BME280;2933;52.302;8.134;2022-12-18T04:58:52;101852.13;;;-11.87;100.00
5814;BME280;2933;52.302;8.134;2022-12-18T05:03:53;101850.13;;;-11.45;100.00
5814;BME280;2933;52.302;8.134;2022-12-18T05:08:55;101847.75;;;-11.42;100.00
5814;BME280;2933;52.302;8.134;2022-12-18T05:13:58;101843.72;;;-10.87;100.00
5814;BME280;2933;52.302;8.134;2022-12-18T05:18:59;101839.69;;;-10.65;100.00
5814;BME280;2933;52.302;8.134;2022-12-18T05:24:01;101839.97;;;-10.59;100.00
5814;BME280;2933;52.302;8.134;2022-12-18T05:29:04;101793.44;;;-10.64;100.00
5814;BME280;2933;52.302;8.134;2022-12-18T05:34:05;101832.34;;;-10.23;100.00
5814;BME280;2933;52.302;8.134;2022-12-18T05:39:07;101844.84;;;-10.08;100.00
5814;BME280;2933;52.302;8.134;2022-12-18T05:44:10;101839.97;;;-10.03;100.00
5814;BME280;2933;52.302;8.134;2022-12-18T05:49:11;101825.78;;;-10.19;100.00
5814;BME280;2933;52.302;8.134;2022-12-18T05:54:13;101845.34;;;-10.15;100.00
5814;BME280;2933;52.302;8.134;2022-12-18T05:59:16;101835.25;;;-10.33;100.00
5814;BME280;2933;52.302;8.134;2022-12-18T06:04:17;101870.63;;;-10.15;100.00
5814;BME280;2933;52.302;8.134;2022-12-18T06:09:19;101868.28;;;-10.11;100.00
5814;BME280;2933;52.302;8.134;2022-12-18T06:14:22;101862.53;;;-10.26;100.00
5814;BME280;2933;52.302;8.134;2022-12-18T06:19:23;101838.25;;;-10.42;100.00
5814;BME280;2933;52.302;8.134;2022-12-18T06:24:25;101889.41;;;-10.10;100.00
5814;BME280;2933;52.302;8.134;2022-12-18T06:29:28;101887.56;;;-9.95;100.00
5814;BME280;2933;52.302;8.134;2022-12-18T06:34:29;101862.31;;;-10.13;100.00
5814;BME280;2933;52.302;8.134;2022-12-18T06:39:31;101901.09;;;-9.94;100.00
5814;BME280;2933;52.302;8.134;2022-12-18T06:44:34;101907.88;;;-9.93;100.00
5814;BME280;2933;52.302;8.134;2022-12-18T06:49:35;101910.53;;;-9.90;100.00
5814;BME280;2933;52.302;8.134;2022-12-18T06:54:37;101908.06;;;-9.88;100.00
5814;BME280;2933;52.302;8.134;2022-12-18T06:59:40;101910.81;;;-9.84;100.00
5814;BME280;2933;52.302;8.134;2022-12-18T07:04:41;101906.09;;;-9.76;100.00
5814;BME280;2933;52.302;8.134;2022-12-18T07:09:43;101895.84;;;-9.79;100.00
5814;BME280;2933;52.302;8.134;2022-12-18T07:14:46;101892.09;;;-9.69;100.00
5814;BME280;2933;52.302;8.134;2022-12-18T07:19:47;101895.75;;;-9.63;100.00
5814;BME280;2933;52.302;8.134;2022-12-18T07:24:49;101870.16;;;-9.69;100.00
5814;BME280;2933;52.302;8.134;2022-12-18T07:29:51;101890.97;;;-9.75;100.00
5814;BME280;2933;52.302;8.134;2022-12-18T07:34:53;101879.16;;;-9.76;100.00
5814;BME280;2933;52.302;8.134;2022-12-18T07:39:54;101892.34;;;-9.63;100.00
5814;BME280;2933;52.302;8.134;2022-12-18T07:44:58;101900.06;;;-9.60;100.00
5814;BME280;2933;52.302;8.134;2022-12-18T07:49:59;101903.94;;;-9.49;100.00
5814;BME280;2933;52.302;8.134;2022-12-18T07:55:01;101900.66;;;-9.46;100.00
5814;BME280;2933;52.302;8.134;2022-12-18T08:00:05;101884.56;;;-9.48;100.00
5814;BME280;2933;52.302;8.134;2022-12-18T08:05:08;101841.19;;;-9.56;100.00
5814;BME280;2933;52.302;8.134;2022-12-18T08:10:09;101876.38;;;-9.23;100.00
5814;BME280;2933;52.302;8.134;2022-12-18T08:15:12;101879.50;;;-9.29;100.00
5814;BME280;2933;52.302;8.134;2022-12-18T08:20:14;101872.88;;;-9.25;100.00
5814;BME280;2933;52.302;8.134;2022-12-18T08:25:17;101858.22;;;-9.13;100.00
5814;BME280;2933;52.302;8.134;2022-12-18T08:30:20;101837.84;;;-9.16;100.00
5814;BME280;2933;52.302;8.134;2022-12-18T08:35:21;101855.72;;;-8.91;100.00
5814;BME280;2933;52.302;8.134;2022-12-18T08:40:23;101866.97;;;-8.85;100.00
5814;BME280;2933;52.302;8.134;2022-12-18T08:45:26;101873.34;;;-8.73;100.00
5814;BME280;2933;52.302;8.134;2022-12-18T08:50:27;101876.94;;;-8.68;100.00
5814;BME280;2933;52.302;8.134;2022-12-18T08:55:29;101868.38;;;-8.70;100.00
5814;BME280;2933;52.302;8.134;2022-12-18T09:00:32;101854.81;;;-8.51;100.00
5814;BME280;2933;52.302;8.134;2022-12-18T09:05:33;101849.25;;;-8.41;100.00
5814;BME280;2933;52.302;8.134;2022-12-18T09:10:47;101842.50;;;-8.40;100.00
5814;BME280;2933;52.302;8.134;2022-12-18T09:15:52;101826.53;;;-8.38;100.00
5814;BME280;2933;52.302;8.134;2022-12-18T09:20:54;101851.00;;;-8.17;100.00
5814;BME280;2933;52.302;8.134;2022-12-18T09:25:58;101820.50;;;-8.41;100.00
5814;BME280;2933;52.302;8.134;2022-12-18T09:31:05;101847.72;;;-8.15;100.00
5814;BME280;2933;52.302;8.134;2022-12-18T09:36:15;101853.75;;;-8.11;100.00
5814;BME280;2933;52.302;8.134;2022-12-18T09:41:28;101867.53;;;-8.04;100.00
5814;BME280;2933;52.302;8.134;2022-12-18T09:46:38;101851.88;;;-7.94;100.00
5814;BME280;2933;52.302;8.134;2022-12-18T09:51:45;101841.72;;;-7.94;100.00
5814;BME280;2933;52.302;8.134;2022-12-18T09:56:48;101853.31;;;-7.78;100.00
5814;BME280;2933;52.302;8.134;2022-12-18T10:01:51;101855.31;;;-7.69;100.00
5814;BME280;2933;52.302;8.134;2022-12-18T10:06:58;101856.19;;;-7.67;100.00
5814;BME280;2933;52.302;8.134;2022-12-18T10:12:08;101823.56;;;-7.58;100.00
5814;BME280;2933;52.302;8.134;2022-12-18T10:17:20;101804.69;;;-7.40;100.00
5814;BME280;2933;52.302;8.134;2022-12-18T10:22:34;101791.19;;;-7.39;100.00
5814;BME280;2933;52.302;8.134;2022-12-18T10:27:37;101777.91;;;-7.32;100.00
5814;BME280;2933;52.302;8.134;2022-12-18T10:32:40;101776.47;;;-7.24;100.00
5814;BME280;2933;52.302;8.134;2022-12-18T10:38:04;101806.72;;;-7.04;100.00
5814;BME280;2933;52.302;8.134;2022-12-18T10:43:11;101770.59;;;-6.95;100.00
5814;BME280;2933;52.302;8.134;2022-12-18T10:48:21;101784.03;;;-6.72;100.00
5814;BME280;2933;52.302;8.134;2022-12-18T10:53:25;101765.97;;;-6.53;100.00
5814;BME280;2933;52.302;8.134;2022-12-18T10:58:29;101737.88;;;-6.57;100.00
5814;BME280;2933;52.302;8.134;2022-12-18T11:03:36;101741.59;;;-6.46;100.00
5814;BME280;2933;52.302;8.134;2022-12-18T11:08:38;101722.88;;;-6.48;100.00
5814;BME280;2933;52.302;8.134;2022-12-18T11:13:40;101743.59;;;-6.36;100.00
5814;BME280;2933;52.302;8.134;2022-12-18T11:18:43;101731.94;;;-6.29;100.00
5814;BME280;2933;52.302;8.134;2022-12-18T11:23:47;101693.69;;;-6.32;100.00
5814;BME280;2933;52.302;8.134;2022-12-18T11:28:52;101725.72;;;-6.07;100.00
5814;BME280;2933;52.302;8.134;2022-12-18T11:34:12;101719.97;;;-6.01;100.00
5814;BME280;2933;52.302;8.134;2022-12-18T11:39:17;101692.00;;;-5.99;100.00
5814;BME280;2933;52.302;8.134;2022-12-18T11:44:25;101702.59;;;-5.84;100.00
5814;BME280;2933;52.302;8.134;2022-12-18T11:49:33;101707.88;;;-5.76;100.00
5814;BME280;2933;52.302;8.134;2022-12-18T11:54:35;101656.00;;;-5.80;100.00
5814;BME280;2933;52.302;8.134;2022-12-18T11:59:45;101645.06;;;-5.76;100.00
5814;BME280;2933;52.302;8.134;2022-12-18T12:05:05;101649.03;;;-5.52;100.00
5814;BME280;2933;52.302;8.134;2022-12-18T12:10:25;101635.31;;;-5.59;100.00
5814;BME280;2933;52.302;8.134;2022-12-18T12:15:34;101637.31;;;-5.47;100.00
5814;BME280;2933;52.302;8.134;2022-12-18T12:20:49;101648.84;;;-5.25;100.00
5814;BME280;2933;52.302;8.134;2022-12-18T12:26:01;101650.94;;;-5.08;100.00
5814;BME280;2933;52.302;8.134;2022-12-18T12:31:08;101646.81;;;-5.01;100.00
5814;BME280;2933;52.302;8.134;2022-12-18T12:36:18;101650.59;;;-4.82;100.00
5814;BME280;2933;52.302;8.134;2022-12-18T12:41:24;101638.59;;;-4.88;100.00
5814;BME280;2933;52.302;8.134;2022-12-18T12:46:46;101646.63;;;-4.71;100.00
5814;BME280;2933;52.302;8.134;2022-12-18T12:51:56;101628.78;;;-4.71;100.00
5814;BME280;2933;52.302;8.134;2022-12-18T12:57:04;101598.19;;;-4.69;100.00
5814;BME280;2933;52.302;8.134;2022-12-18T13:02:15;101599.25;;;-4.58;100.00
5814;BME280;2933;52.302;8.134;2022-12-18T13:07:26;101593.50;;;-4.48;100.00
5814;BME280;2933;52.302;8.134;2022-12-18T13:12:30;101581.56;;;-4.49;100.00
5814;BME280;2933;52.302;8.134;2022-12-18T13:18:03;101581.91;;;-4.32;100.00
5814;BME280;2933;52.302;8.134;2022-12-18T13:23:28;101560.66;;;-4.31;100.00
5814;BME280;2933;52.302;8.134;2022-12-18T13:28:52;101549.63;;;-4.30;100.00
5814;BME280;2933;52.302;8.134;2022-12-18T13:34:11;101555.47;;;-4.35;100.00
5814;BME280;2933;52.302;8.134;2022-12-18T13:39:34;101545.34;;;-4.31;100.00
5814;BME280;2933;52.302;8.134;2022-12-18T13:44:39;101549.66;;;-4.28;100.00
5814;BME280;2933;52.302;8.134;2022-12-18T13:49:43;101521.47;;;-4.36;100.00
5814;BME280;2933;52.302;8.134;2022-12-18T13:54:50;101529.44;;;-4.16;100.00
5814;BME280;2933;52.302;8.134;2022-12-18T13:59:52;101532.84;;;-4.15;100.00
5814;BME280;2933;52.302;8.134;2022-12-18T14:04:54;101513.13;;;-4.24;100.00
5814;BME280;2933;52.302;8.134;2022-12-18T14:09:58;101475.44;;;-4.41;99.70
5814;BME280;2933;52.302;8.134;2022-12-18T14:15:01;101533.91;;;-4.04;99.44
5814;BME280;2933;52.302;8.134;2022-12-18T14:20:04;101486.56;;;-4.37;99.59
5814;BME280;2933;52.302;8.134;2022-12-18T14:25:18;101511.50;;;-4.20;99.82
5814;BME280;2933;52.302;8.134;2022-12-18T14:30:31;101501.91;;;-4.34;100.00
5814;BME280;2933;52.302;8.134;2022-12-18T14:35:34;101507.00;;;-4.35;100.00
5814;BME280;2933;52.302;8.134;2022-12-18T14:40:37;101485.84;;;-4.30;98.82
5814;BME280;2933;52.302;8.134;2022-12-18T14:45:40;101496.44;;;-4.05;98.48
5814;BME280;2933;52.302;8.134;2022-12-18T14:50:43;101475.88;;;-4.13;98.96
5814;BME280;2933;52.302;8.134;2022-12-18T14:55:48;101472.66;;;-4.02;97.01
5814;BME280;2933;52.302;8.134;2022-12-18T15:00:50;101475.19;;;-4.04;98.45
5814;BME280;2933;52.302;8.134;2022-12-18T15:05:52;101479.34;;;-4.09;97.49
5814;BME280;2933;52.302;8.134;2022-12-18T15:10:55;101453.81;;;-4.09;97.33
5814;BME280;2933;52.302;8.134;2022-12-18T15:15:58;101403.41;;;-4.26;96.12
5814;BME280;2933;52.302;8.134;2022-12-18T15:21:08;101430.94;;;-4.04;95.83
5814;BME280;2933;52.302;8.134;2022-12-18T15:26:13;101440.25;;;-4.07;96.03
5814;BME280;2933;52.302;8.134;2022-12-18T15:31:24;101418.41;;;-3.87;94.32
5814;BME280;2933;52.302;8.134;2022-12-18T15:36:30;101410.84;;;-3.81;93.98
5814;BME280;2933;52.302;8.134;2022-12-18T15:41:37;101398.75;;;-3.92;94.64
5814;BME280;2933;52.302;8.134;2022-12-18T15:46:39;101403.34;;;-3.70;92.63
5814;BME280;2933;52.302;8.134;2022-12-18T15:51:40;101404.03;;;-3.79;93.56
5814;BME280;2933;52.302;8.134;2022-12-18T15:56:43;101387.72;;;-3.91;94.11
5814;BME280;2933;52.302;8.134;2022-12-18T16:02:15;101351.00;;;-4.00;93.82
5814;BME280;2933;52.302;8.134;2022-12-18T16:07:17;101377.66;;;-3.78;93.88
5814;BME280;2933;52.302;8.134;2022-12-18T16:12:21;101365.88;;;-3.67;92.90
5814;BME280;2933;52.302;8.134;2022-12-18T16:17:25;101365.94;;;-3.64;92.49
5814;BME280;2933;52.302;8.134;2022-12-18T16:22:28;101353.16;;;-3.65;92.56
5814;BME280;2933;52.302;8.134;2022-12-18T16:27:31;101342.97;;;-3.64;92.19
5814;BME280;2933;52.302;8.134;2022-12-18T16:32:33;101331.84;;;-3.67;93.23
5814;BME280;2933;52.302;8.134;2022-12-18T16:37:36;101318.13;;;-3.77;94.16
5814;BME280;2933;52.302;8.134;2022-12-18T16:42:43;101293.41;;;-3.80;92.76
5814;BME280;2933;52.302;8.134;2022-12-18T16:47:45;101296.84;;;-3.76;92.86
5814;BME280;2933;52.302;8.134;2022-12-18T16:52:46;101256.56;;;-4.02;93.46
5814;BME280;2933;52.302;8.134;2022-12-18T16:57:49;101297.81;;;-3.66;93.73
5814;BME280;2933;52.302;8.134;2022-12-18T17:02:53;101253.31;;;-3.88;92.34
5814;BME280;2933;52.302;8.134;2022-12-18T17:07:54;101287.59;;;-3.65;92.81
5814;BME280;2933;52.302;8.134;2022-12-18T17:12:57;101254.19;;;-3.85;92.56
5814;BME280;2933;52.302;8.134;2022-12-18T17:18:01;101209.72;;;-4.06;93.18
5814;BME280;2933;52.302;8.134;2022-12-18T17:23:03;101268.09;;;-3.58;92.73
5814;BME280;2933;52.302;8.134;2022-12-18T17:28:08;101207.34;;;-3.90;91.25
5814;BME280;2933;52.302;8.134;2022-12-18T17:33:14;101244.31;;;-3.52;91.22
5814;BME280;2933;52.302;8.134;2022-12-18T17:38:15;101245.19;;;-3.50;91.50
5814;BME280;2933;52.302;8.134;2022-12-18T17:43:31;101224.69;;;-3.57;90.08
5814;BME280;2933;52.302;8.134;2022-12-18T17:48:34;101228.94;;;-3.57;91.01
5814;BME280;2933;52.302;8.134;2022-12-18T17:53:36;101263.19;;;-3.36;91.01
5814;BME280;2933;52.302;8.134;2022-12-18T18:04:31;101247.03;;;-3.35;91.44
5814;BME280;2933;52.302;8.134;2022-12-18T18:09:33;101240.97;;;-3.45;92.82
5814;BME280;2933;52.302;8.134;2022-12-18T18:14:35;101249.59;;;-3.35;91.07
5814;BME280;2933;52.302;8.134;2022-12-18T18:19:38;101220.47;;;-3.51;91.76
5814;BME280;2933;52.302;8.134;2022-12-18T18:24:42;101245.38;;;-3.30;91.83
5814;BME280;2933;52.302;8.134;2022-12-18T18:29:44;101225.72;;;-3.36;90.54
5814;BME280;2933;52.302;8.134;2022-12-18T18:34:47;101201.00;;;-3.42;91.04
5814;BME280;2933;52.302;8.134;2022-12-18T18:39:51;101199.22;;;-3.46;92.03
5814;BME280;2933;52.302;8.134;2022-12-18T18:45:39;101223.19;;;-3.33;92.12
5814;BME280;2933;52.302;8.134;2022-12-18T18:50:42;101246.28;;;-3.22;91.69
5814;BME280;2933;52.302;8.134;2022-12-18T18:55:55;101208.75;;;-3.29;91.13
5814;BME280;2933;52.302;8.134;2022-12-18T19:01:04;101209.50;;;-3.41;91.63
5814;BME280;2933;52.302;8.134;2022-12-18T19:06:30;101190.59;;;-3.62;93.09
5814;BME280;2933;52.302;8.134;2022-12-18T19:11:45;101241.91;;;-3.35;92.46
5814;BME280;2933;52.302;8.134;2022-12-18T19:17:05;101216.28;;;-3.43;93.13
5814;BME280;2933;52.302;8.134;2022-12-18T19:22:08;101211.09;;;-3.52;93.55
5814;BME280;2933;52.302;8.134;2022-12-18T19:27:10;101233.44;;;-3.31;93.47
5814;BME280;2933;52.302;8.134;2022-12-18T19:32:11;101232.69;;;-3.16;90.26
5814;BME280;2933;52.302;8.134;2022-12-18T19:37:15;101246.41;;;-3.05;88.86
5814;BME280;2933;52.302;8.134;2022-12-18T19:42:23;101174.59;;;-3.41;87.79
5814;BME280;2933;52.302;8.134;2022-12-18T19:47:42;101231.06;;;-3.06;88.26
5814;BME280;2933;52.302;8.134;2022-12-18T19:52:45;101203.69;;;-3.21;88.13
5814;BME280;2933;52.302;8.134;2022-12-18T19:58:07;101173.72;;;-3.44;88.64
5814;BME280;2933;52.302;8.134;2022-12-18T20:03:46;101226.69;;;-3.18;88.83
5814;BME280;2933;52.302;8.134;2022-12-18T20:09:17;101163.41;;;-3.53;89.14
5814;BME280;2933;52.302;8.134;2022-12-18T20:14:42;101210.56;;;-3.13;89.24
5814;BME280;2933;52.302;8.134;2022-12-18T20:19:49;101176.28;;;-3.41;89.78
5814;BME280;2933;52.302;8.134;2022-12-18T20:24:58;101205.31;;;-3.33;90.77
5814;BME280;2933;52.302;8.134;2022-12-18T20:30:00;101254.91;;;-3.11;92.20
5814;BME280;2933;52.302;8.134;2022-12-18T20:35:10;101247.19;;;-3.12;92.37
5814;BME280;2933;52.302;8.134;2022-12-18T20:46:15;101231.81;;;-3.20;95.63
5814;BME280;2933;52.302;8.134;2022-12-18T20:51:27;101241.19;;;-3.17;96.33
5814;BME280;2933;52.302;8.134;2022-12-18T20:56:34;101172.72;;;-3.60;96.76
5814;BME280;2933;52.302;8.134;2022-12-18T21:01:37;101166.78;;;-3.56;98.32
5814;BME280;2933;52.302;8.134;2022-12-18T21:06:45;101193.34;;;-3.38;98.83
5814;BME280;2933;52.302;8.134;2022-12-18T21:11:53;101194.25;;;-3.29;100.00
5814;BME280;2933;52.302;8.134;2022-12-18T21:17:14;101220.75;;;-3.20;100.00
5814;BME280;2933;52.302;8.134;2022-12-18T21:22:18;101206.16;;;-3.34;100.00
5814;BME280;2933;52.302;8.134;2022-12-18T21:27:20;101218.09;;;-3.31;100.00
5814;BME280;2933;52.302;8.134;2022-12-18T21:32:23;101194.16;;;-3.44;100.00
5814;BME280;2933;52.302;8.134;2022-12-18T21:37:24;101223.19;;;-3.31;100.00
5814;BME280;2933;52.302;8.134;2022-12-18T21:42:26;101197.59;;;-3.41;100.00
5814;BME280;2933;52.302;8.134;2022-12-18T21:47:46;101218.34;;;-2.97;100.00
5814;BME280;2933;52.302;8.134;2022-12-18T21:52:48;101210.56;;;-3.11;100.00
5814;BME280;2933;52.302;8.134;2022-12-18T22:03:14;101190.00;;;-3.31;100.00
5814;BME280;2933;52.302;8.134;2022-12-18T22:08:16;101180.75;;;-3.14;100.00
5814;BME280;2933;52.302;8.134;2022-12-18T22:13:17;101170.50;;;-3.17;100.00
5814;BME280;2933;52.302;8.134;2022-12-18T22:18:21;101118.34;;;-3.47;100.00
5814;BME280;2933;52.302;8.134;2022-12-18T22:23:22;101193.56;;;-3.06;100.00
5814;BME280;2933;52.302;8.134;2022-12-18T22:28:24;101191.00;;;-3.08;100.00
5814;BME280;2933;52.302;8.134;2022-12-18T22:33:44;101168.81;;;-3.15;100.00
5814;BME280;2933;52.302;8.134;2022-12-18T22:38:46;101183.38;;;-3.04;100.00
5814;BME280;2933;52.302;8.134;2022-12-18T22:43:48;101179.97;;;-3.02;100.00
5814;BME280;2933;52.302;8.134;2022-12-18T22:48:51;101176.66;;;-2.84;100.00
5814;BME280;2933;52.302;8.134;2022-12-18T22:53:53;101181.78;;;-2.85;100.00
5814;BME280;2933;52.302;8.134;2022-12-18T22:58:54;101176.66;;;-2.84;100.00
5814;BME280;2933;52.302;8.134;2022-12-18T23:03:58;101138.19;;;-3.04;100.00
5814;BME280;2933;52.302;8.134;2022-12-18T23:08:59;101162.22;;;-2.72;100.00
5814;BME280;2933;52.302;8.134;2022-12-18T23:14:01;101153.69;;;-2.79;100.00
5814;BME280;2933;52.302;8.134;2022-12-18T23:19:05;101166.50;;;-2.74;100.00
5814;BME280;2933;52.302;8.134;2022-12-18T23:24:07;101154.56;;;-2.68;100.00
5814;BME280;2933;52.302;8.134;2022-12-18T23:29:08;101143.53;;;-2.62;100.00
5814;BME280;2933;52.302;8.134;2022-12-18T23:34:13;101131.63;;;-2.52;100.00
5814;BME280;2933;52.302;8.134;2022-12-18T23:39:14;101120.56;;;-2.40;100.00
5814;BME280;2933;52.302;8.134;2022-12-18T23:44:16;101103.50;;;-2.41;100.00
5814;BME280;2933;52.302;8.134;2022-12-18T23:49:19;101084.78;;;-2.25;100.00
5814;BME280;2933;52.302;8.134;2022-12-18T23:54:20;101071.97;;;-2.37;100.00
5814;BME280;2933;52.302;8.134;2022-12-18T23:59:22;101055.72;;;-2.42;100.00
